Time;durP1;ratioP1;P1;durP2;ratioP2;P2;SDS_P1;SDS_P2;PMS_P1;PMS_P2;Temp;Humidity;BMP_temperature;BMP_pressure;BME280_temperature;BME280_humidity;BME280_pressure;Samples;Min_cycle;Max_cycle;Signal;HPM_P1;HPM_P2
2023/06/14 19:46:31;;;;;;;4.03;2.47;;;;;;;23.45;55.00;101904.66;5076284;28;20383;-64
2023/06/14 19:48:56;;;;;;;5.13;2.40;;;;;;;23.77;54.06;101894.81;5056295;28;20045;-66
2023/06/14 19:51:22;;;;;;;3.20;2.08;;;;;;;23.95;53.63;101896.34;5074988;28;20086;-67
2023/06/14 19:53:47;;;;;;;4.05;2.42;;;;;;;23.97;53.28;101894.97;5076326;28;20021;-66
2023/06/14 19:56:13;;;;;;;5.32;2.33;;;;;;;23.96;53.12;101896.06;5074679;28;20071;-66
2023/06/14 19:58:39;;;;;;;5.57;2.55;;;;;;;23.91;51.47;101894.13;5075956;28;20363;-66
2023/06/14 20:01:04;;;;;;;2.80;2.03;;;;;;;23.88;51.94;101886.41;5072692;28;20036;-66
2023/06/14 20:03:30;;;;;;;2.55;1.90;;;;;;;23.92;51.77;101900.44;5071044;28;20789;-70
2023/06/14 20:05:55;;;;;;;3.65;2.42;;;;;;;23.92;49.66;101895.78;5074526;28;20507;-70
2023/06/14 20:08:24;;;;;;;3.88;2.45;;;;;;;23.97;49.99;101885.91;5074141;28;20483;-67
2023/06/14 20:10:50;;;;;;;4.28;2.17;;;;;;;24.03;50.51;101895.84;5076241;28;20028;-67
2023/06/14 20:13:16;;;;;;;4.32;2.22;;;;;;;24.13;48.95;101895.94;5076056;28;20025;-67
2023/06/14 20:15:41;;;;;;;4.00;2.20;;;;;;;24.09;47.50;101903.06;5073877;28;20094;-67
2023/06/14 20:18:07;;;;;;;3.40;2.05;;;;;;;24.10;46.28;101905.53;5074473;28;20024;-66
2023/06/14 20:20:32;;;;;;;5.20;2.13;;;;;;;24.17;45.45;101898.97;5075938;28;20028;-70
2023/06/14 20:22:58;;;;;;;6.40;2.08;;;;;;;24.20;44.97;101904.78;5074324;28;20033;-67
2023/06/14 20:25:23;;;;;;;3.65;2.00;;;;;;;24.20;45.31;101904.78;5041960;28;20119;-66
2023/06/14 20:27:48;;;;;;;3.33;2.22;;;;;;;24.12;43.80;101903.34;5075671;28;20029;-70
2023/06/14 20:30:14;;;;;;;3.10;2.13;;;;;;;24.10;43.99;101904.69;5074865;28;20020;-66
2023/06/14 20:32:40;;;;;;;2.97;2.13;;;;;;;24.10;44.87;101904.69;5075254;28;20080;-66
2023/06/14 20:35:06;;;;;;;4.50;2.15;;;;;;;24.02;44.62;101907.94;5080791;28;20013;-67
2023/06/14 20:37:31;;;;;;;4.25;2.10;;;;;;;24.05;44.47;101905.50;5078764;28;20483;-66
2023/06/14 20:40:02;;;;;;;3.13;1.90;;;;;;;23.88;43.92;101902.06;5075129;28;20025;-67
2023/06/14 20:42:29;;;;;;;3.30;2.33;;;;;;;23.89;43.17;101915.53;5074167;28;20052;-67
2023/06/14 20:44:55;;;;;;;6.18;2.20;;;;;;;23.92;43.81;101908.69;5074869;28;20056;-68
2023/06/14 20:47:20;;;;;;;4.68;2.30;;;;;;;23.77;44.03;101903.88;5075445;28;20033;-66
2023/06/14 20:49:46;;;;;;;2.50;2.30;;;;;;;23.78;44.11;101913.78;5075675;28;20046;-66
2023/06/14 20:52:13;;;;;;;3.10;2.15;;;;;;;23.75;44.03;101916.25;5076081;28;20033;-67
2023/06/14 20:54:40;;;;;;;2.92;2.00;;;;;;;23.76;44.12;101921.47;5075611;28;20049;-66
2023/06/14 20:57:13;;;;;;;4.72;2.30;;;;;;;23.79;44.30;101915.44;5066006;28;20035;-67
2023/06/14 20:59:40;;;;;;;2.33;2.00;;;;;;;23.71;44.17;101918.69;5061953;28;20112;-66
2023/06/14 21:02:18;;;;;;;7.30;2.40;;;;;;;23.66;44.50;101919.41;5063501;28;20081;-67
2023/06/14 21:04:45;;;;;;;7.05;2.40;;;;;;;23.62;44.67;101920.19;5063877;28;20025;-67
2023/06/14 21:07:11;;;;;;;5.05;2.25;;;;;;;23.51;44.37;101923.91;5045578;28;20112;-69
2023/06/14 21:09:36;;;;;;;5.85;2.67;;;;;;;23.41;43.89;101925.50;5063427;28;20049;-69
2023/06/14 21:12:02;;;;;;;3.30;2.30;;;;;;;23.42;43.90;101920.81;5058576;28;20027;-66
2023/06/14 21:14:28;;;;;;;6.05;2.25;;;;;;;23.35;43.31;101917.44;5060438;28;20021;-67
2023/06/14 21:16:54;;;;;;;4.82;2.22;;;;;;;23.33;42.53;101911.38;5062303;28;20033;-67
2023/06/14 21:19:19;;;;;;;3.55;2.10;;;;;;;23.32;42.69;101918.78;5061787;28;20027;-67
2023/06/14 21:21:45;;;;;;;3.03;1.90;;;;;;;23.27;42.29;101915.97;5030815;28;20035;-72
2023/06/14 21:24:10;;;;;;;2.80;2.30;;;;;;;23.30;41.85;101909.13;5049356;28;20475;-71
2023/06/14 21:26:37;;;;;;;4.45;2.10;;;;;;;23.30;42.25;101907.22;5067000;28;20052;-77
2023/06/14 21:29:03;;;;;;;2.95;2.10;;;;;;;23.17;41.37;101913.09;5066102;28;20082;-69
2023/06/14 21:31:29;;;;;;;3.58;2.00;;;;;;;23.20;41.10;101915.34;5067369;28;20533;-68
2023/06/14 21:33:55;;;;;;;2.97;2.30;;;;;;;23.18;41.61;101918.34;5067663;28;20028;-76
2023/06/14 21:36:20;;;;;;;2.95;2.10;;;;;;;23.18;41.21;101917.53;5048894;28;20037;-74
2023/06/14 21:38:47;;;;;;;3.17;2.22;;;;;;;23.18;40.85;101917.53;5064158;28;20061;-75
2023/06/14 21:41:12;;;;;;;5.85;2.22;;;;;;;23.23;41.08;101912.09;5063297;28;20029;-67
2023/06/14 21:43:38;;;;;;;5.90;2.30;;;;;;;23.21;41.14;101909.59;5042062;28;20037;-65
2023/06/14 21:46:03;;;;;;;3.25;2.13;;;;;;;23.25;41.27;101909.91;5059471;28;20511;-66
2023/06/14 21:48:29;;;;;;;3.38;2.30;;;;;;;23.31;41.68;101911.66;5058327;28;20036;-67
2023/06/14 21:50:56;;;;;;;3.95;2.30;;;;;;;23.26;41.80;101906.06;5058509;28;20035;-65
2023/06/14 21:53:21;;;;;;;5.03;2.35;;;;;;;23.25;41.75;101909.09;5058673;28;20017;-65
2023/06/14 21:55:47;;;;;;;5.00;1.98;;;;;;;23.18;40.89;101918.34;5054190;28;20454;-68
2023/06/14 21:58:12;;;;;;;6.30;2.40;;;;;;;23.26;41.19;101917.06;5057782;28;20037;-66
2023/06/14 22:00:37;;;;;;;5.75;2.20;;;;;;;23.26;41.40;101921.72;5059222;28;20043;-66
2023/06/14 22:03:03;;;;;;;4.68;1.80;;;;;;;23.25;41.74;101911.84;5060441;28;20025;-69
2023/06/14 22:05:28;;;;;;;4.22;2.10;;;;;;;23.23;41.80;101903.03;5061905;28;20029;-66
2023/06/14 22:07:54;;;;;;;4.38;2.30;;;;;;;23.24;41.93;101904.66;5058707;28;20187;-66
2023/06/14 22:10:19;;;;;;;2.53;2.33;;;;;;;23.21;42.30;101897.78;5060732;28;20036;-66
2023/06/14 22:12:46;;;;;;;4.05;2.25;;;;;;;23.18;42.71;101898.31;5061643;28;20025;-69
2023/06/14 22:15:12;;;;;;;3.10;2.10;;;;;;;23.16;43.03;101905.97;5063003;28;20020;-65
2023/06/14 22:17:41;;;;;;;7.60;2.58;;;;;;;23.14;43.11;101910.88;5062286;28;20108;-65
2023/06/14 22:20:09;;;;;;;5.15;2.15;;;;;;;23.12;43.30;101911.16;5054152;28;20107;-65
2023/06/14 22:22:37;;;;;;;4.20;2.30;;;;;;;23.09;43.37;101908.91;5058931;28;20036;-65
2023/06/14 22:25:03;;;;;;;2.90;2.20;;;;;;;23.01;43.76;101909.34;5060703;28;20032;-66
2023/06/14 22:27:29;;;;;;;2.72;2.50;;;;;;;22.94;43.83;101903.22;5060909;28;20060;-66
2023/06/14 22:29:57;;;;;;;4.45;2.28;;;;;;;22.90;43.89;101907.53;5059072;28;20092;-65
2023/06/14 22:32:28;;;;;;;5.55;2.25;;;;;;;22.84;44.20;101909.38;5061305;28;20373;-67
2023/06/14 22:34:58;;;;;;;4.47;2.25;;;;;;;22.76;44.69;101901.59;5059138;28;20550;-66
2023/06/14 22:37:36;;;;;;;3.58;2.00;;;;;;;22.59;44.96;101885.19;5060419;28;20432;-66
2023/06/14 22:40:09;;;;;;;3.83;2.72;;;;;;;22.62;45.19;101903.06;5060090;28;20020;-66
2023/06/14 22:42:45;;;;;;;3.63;2.30;;;;;;;22.51;45.55;101894.66;5061213;28;20044;-66
2023/06/14 22:45:12;;;;;;;4.93;2.50;;;;;;;22.38;45.80;101905.16;5059965;28;20078;-65
2023/06/14 22:47:40;;;;;;;4.00;2.35;;;;;;;22.29;45.91;101902.03;5059649;28;20104;-65
2023/06/14 22:50:06;;;;;;;4.28;2.03;;;;;;;22.23;45.96;101898.38;5055070;28;20036;-67
2023/06/14 22:52:34;;;;;;;3.30;2.20;;;;;;;22.21;45.91;101891.47;5059703;28;20024;-67
2023/06/14 22:55:03;;;;;;;4.85;2.33;;;;;;;22.15;46.08;101895.16;5060290;28;20028;-66
2023/06/14 22:57:29;;;;;;;4.10;2.15;;;;;;;22.04;46.44;101889.53;5060604;28;20044;-66
2023/06/14 22:59:55;;;;;;;3.65;2.30;;;;;;;21.92;46.55;101876.97;5060084;28;20531;-66
2023/06/14 23:02:22;;;;;;;3.17;2.35;;;;;;;22.00;46.25;101896.59;5059080;28;20045;-66
2023/06/14 23:04:47;;;;;;;4.63;2.25;;;;;;;21.85;46.04;101874.41;5060007;28;20029;-65
2023/06/14 23:07:14;;;;;;;2.95;2.15;;;;;;;21.96;45.88;101897.34;5059369;28;20078;-65
2023/06/14 23:09:42;;;;;;;6.68;2.53;;;;;;;21.94;46.25;101897.59;5058583;28;20033;-65
2023/06/14 23:12:09;;;;;;;4.18;2.22;;;;;;;21.92;46.21;101897.03;5059601;28;20025;-65
2023/06/14 23:14:37;;;;;;;4.95;2.30;;;;;;;21.84;46.77;101899.34;5059951;28;20020;-66
2023/06/14 23:17:05;;;;;;;5.03;2.17;;;;;;;21.81;46.58;101903.38;5059030;28;20025;-65
2023/06/14 23:19:31;;;;;;;4.00;2.13;;;;;;;21.77;46.43;101904.97;5057952;28;20025;-66
2023/06/14 23:21:58;;;;;;;6.10;2.60;;;;;;;21.74;46.88;101903.56;5059227;28;20044;-65
2023/06/14 23:24:27;;;;;;;4.18;2.28;;;;;;;21.74;45.94;101897.25;5059573;28;20032;-65
2023/06/14 23:26:58;;;;;;;3.22;2.15;;;;;;;21.80;45.98;101897.09;5059427;28;20021;-68
2023/06/14 23:29:34;;;;;;;2.63;2.10;;;;;;;21.66;45.85;101878.50;5058198;28;20021;-66
2023/06/14 23:32:00;;;;;;;5.20;2.33;;;;;;;21.69;46.70;101892.53;5059272;28;20070;-65
2023/06/14 23:34:28;;;;;;;3.90;2.60;;;;;;;21.67;47.44;101900.13;5038288;28;20029;-65
2023/06/14 23:36:54;;;;;;;4.72;2.20;;;;;;;21.62;47.85;101891.81;5056327;28;20067;-65
2023/06/14 23:39:21;;;;;;;2.63;2.10;;;;;;;21.54;48.18;101890.31;5057066;28;20063;-66
2023/06/14 23:41:50;;;;;;;3.38;2.17;;;;;;;21.51;48.13;101890.81;5036961;28;20029;-65
2023/06/14 23:44:21;;;;;;;4.78;2.40;;;;;;;21.55;47.82;101885.66;5058601;28;20028;-70
2023/06/14 23:46:53;;;;;;;4.03;2.33;;;;;;;21.57;48.04;101889.00;5060879;28;20087;-68
2023/06/14 23:49:18;;;;;;;3.67;2.53;;;;;;;21.56;48.40;101892.84;5060414;28;20025;-65
2023/06/14 23:51:44;;;;;;;2.50;2.20;;;;;;;21.56;48.50;101892.84;5056305;28;20037;-65
2023/06/14 23:54:12;;;;;;;6.75;2.53;;;;;;;21.46;48.37;101877.03;5059959;28;20036;-65
2023/06/14 23:56:39;;;;;;;2.63;2.20;;;;;;;21.52;48.93;101888.91;5058630;28;20025;-66
2023/06/14 23:59:06;;;;;;;5.78;2.35;;;;;;;21.53;48.89;101891.41;5059781;28;20025;-66
